createdAt,value
2023-03-05T00:01:41.762Z,12.20
2023-03-05T00:04:13.861Z,11.50
2023-03-05T00:06:41.971Z,12.37
2023-03-05T00:09:10.190Z,11.20
2023-03-05T00:11:41.284Z,12.57
2023-03-05T00:14:09.490Z,14.50
2023-03-05T00:16:37.520Z,12.50
2023-03-05T00:19:06.031Z,37.20
2023-03-05T00:21:35.715Z,14.37
2023-03-05T00:24:05.974Z,25.60
2023-03-05T00:26:36.860Z,13.03
2023-03-05T00:29:07.467Z,23.30
2023-03-05T00:31:37.092Z,22.00
2023-03-05T00:34:07.699Z,15.30
2023-03-05T00:36:35.777Z,13.20
2023-03-05T00:39:04.159Z,9.87
2023-03-05T00:41:32.180Z,22.87
2023-03-05T00:44:00.242Z,22.90
2023-03-05T00:46:30.284Z,19.90
2023-03-05T00:48:58.601Z,22.20
2023-03-05T00:51:27.300Z,21.90
2023-03-05T00:53:55.656Z,10.87
2023-03-05T00:56:23.977Z,13.43
2023-03-05T00:58:53.343Z,16.13
2023-03-05T01:01:21.568Z,13.13
2023-03-05T01:03:51.325Z,24.13
2023-03-05T01:06:19.877Z,11.87
2023-03-05T01:08:48.171Z,10.60
2023-03-05T01:11:16.411Z,21.87
2023-03-05T01:13:44.500Z,10.07
2023-03-05T01:16:12.876Z,24.17
2023-03-05T01:18:41.788Z,14.93
2023-03-05T01:21:11.953Z,10.57
2023-03-05T01:23:40.289Z,10.00
2023-03-05T01:26:08.730Z,14.10
2023-03-05T01:28:38.345Z,18.73
2023-03-05T01:31:09.605Z,14.70
2023-03-05T01:33:37.743Z,10.30
2023-03-05T01:36:13.328Z,7.97
2023-03-05T01:38:41.814Z,7.67
2023-03-05T01:41:11.012Z,6.27
2023-03-05T01:43:39.361Z,12.10
2023-03-05T01:46:38.181Z,10.63
2023-03-05T01:49:15.585Z,10.80
2023-03-05T01:51:52.660Z,12.33
2023-03-05T01:54:23.886Z,6.63
2023-03-05T01:56:55.106Z,9.83
2023-03-05T01:59:24.574Z,10.10
2023-03-05T02:01:56.868Z,12.27
2023-03-05T02:04:30.601Z,6.87
2023-03-05T02:07:01.280Z,10.90
2023-03-05T02:09:29.779Z,8.37
2023-03-05T02:11:58.485Z,5.00
2023-03-05T02:14:26.979Z,6.40
2023-03-05T02:16:55.116Z,5.43
2023-03-05T02:19:23.192Z,6.90
2023-03-05T02:21:52.801Z,8.33
2023-03-05T02:24:35.598Z,8.90
2023-03-05T02:27:05.816Z,6.70
2023-03-05T02:29:35.195Z,3.70
2023-03-05T02:32:03.902Z,3.87
2023-03-05T02:34:32.115Z,9.33
2023-03-05T02:37:02.674Z,6.50
2023-03-05T02:39:30.961Z,6.97
2023-03-05T02:41:59.097Z,6.00
2023-03-05T02:44:27.767Z,6.27
2023-03-05T02:46:55.842Z,6.07
2023-03-05T02:49:23.904Z,6.03
2023-03-05T02:51:51.964Z,8.70
2023-03-05T02:54:22.162Z,9.53
2023-03-05T02:56:50.258Z,5.30
2023-03-05T02:59:18.409Z,5.33
2023-03-05T03:01:46.483Z,7.20
2023-03-05T03:04:14.472Z,5.33
2023-03-05T03:06:42.578Z,4.37
2023-03-05T03:09:10.665Z,3.90
2023-03-05T03:11:40.092Z,5.30
2023-03-05T03:14:08.135Z,5.80
2023-03-05T03:16:36.599Z,5.57
2023-03-05T03:19:04.785Z,4.90
2023-03-05T03:21:32.894Z,3.80
2023-03-05T03:24:00.907Z,6.10
2023-03-05T03:26:30.580Z,5.13
2023-03-05T03:29:00.315Z,4.17
2023-03-05T03:31:28.623Z,4.37
2023-03-05T03:33:56.992Z,4.93
2023-03-05T03:36:25.103Z,5.23
2023-03-05T03:38:53.313Z,7.07
2023-03-05T03:41:21.403Z,4.73
2023-03-05T03:43:49.469Z,3.70
2023-03-05T03:46:19.170Z,6.10
2023-03-05T03:48:50.661Z,7.67
2023-03-05T03:51:18.834Z,4.07
2023-03-05T03:53:46.900Z,8.57
2023-03-05T03:56:14.898Z,4.13
2023-03-05T03:58:42.974Z,7.80
2023-03-05T04:01:11.284Z,4.57
2023-03-05T04:03:41.023Z,5.57
2023-03-05T04:06:09.712Z,7.47
2023-03-05T04:08:38.196Z,7.30
2023-03-05T04:11:07.734Z,5.20
2023-03-05T04:13:35.874Z,6.93
2023-03-05T04:16:04.155Z,6.30
2023-03-05T04:18:32.627Z,4.87
2023-03-05T04:21:03.533Z,9.20
2023-03-05T04:23:31.595Z,11.07
2023-03-05T04:25:59.708Z,8.00
2023-03-05T04:28:28.350Z,8.57
2023-03-05T04:30:56.615Z,8.13
2023-03-05T04:33:24.796Z,6.63
2023-03-05T04:35:53.543Z,8.17
2023-03-05T04:38:23.188Z,5.40
2023-03-05T04:40:51.278Z,6.57
2023-03-05T04:43:19.390Z,5.97
2023-03-05T04:45:47.769Z,5.33
2023-03-05T04:48:17.083Z,5.47
2023-03-05T04:50:45.173Z,4.60
2023-03-05T04:53:13.268Z,4.27
2023-03-05T04:55:42.847Z,5.20
2023-03-05T04:58:11.038Z,6.37
2023-03-05T05:00:39.880Z,5.93
2023-03-05T05:03:08.411Z,11.17
2023-03-05T05:05:36.716Z,6.73
2023-03-05T05:08:05.378Z,7.43
2023-03-05T05:10:33.603Z,8.83
2023-03-05T05:13:03.042Z,7.47
2023-03-05T05:15:32.389Z,8.03
2023-03-05T05:18:00.471Z,10.00
2023-03-05T05:20:28.812Z,6.60
2023-03-05T05:22:56.973Z,7.33
2023-03-05T05:25:25.030Z,4.37
2023-03-05T05:27:53.099Z,10.00
2023-03-05T05:30:22.453Z,9.57
2023-03-05T05:32:50.703Z,4.13
2023-03-05T05:35:18.977Z,6.57
2023-03-05T05:37:47.148Z,7.93
2023-03-05T05:40:15.901Z,7.33
2023-03-05T05:42:44.618Z,6.70
2023-03-05T05:45:13.245Z,3.30
2023-03-05T05:47:42.766Z,5.17
2023-03-05T05:50:13.018Z,6.07
2023-03-05T05:52:41.152Z,3.23
2023-03-05T05:55:10.329Z,6.00
2023-03-05T05:57:38.703Z,4.57
2023-03-05T06:00:12.162Z,3.97
2023-03-05T06:02:40.903Z,4.73
2023-03-05T06:05:15.993Z,4.10
2023-03-05T06:07:44.264Z,5.13
2023-03-05T06:10:13.396Z,7.90
2023-03-05T06:12:41.563Z,7.73
2023-03-05T06:15:10.605Z,8.30
2023-03-05T06:17:38.855Z,6.43
2023-03-05T06:20:08.277Z,5.87
2023-03-05T06:22:39.288Z,7.00
2023-03-05T06:25:09.058Z,4.77
2023-03-05T06:27:37.890Z,6.33
2023-03-05T06:30:07.649Z,9.30
2023-03-05T06:32:35.994Z,3.37
2023-03-05T06:35:04.470Z,6.77
2023-03-05T06:37:32.550Z,5.70
2023-03-05T06:40:02.390Z,7.27
2023-03-05T06:42:30.451Z,8.67
2023-03-05T06:44:58.625Z,9.77
2023-03-05T06:47:26.710Z,8.50
2023-03-05T06:49:54.795Z,7.00
2023-03-05T06:52:23.114Z,7.03
2023-03-05T06:54:51.354Z,6.10
2023-03-05T06:57:20.787Z,6.47
2023-03-05T06:59:48.845Z,6.73
2023-03-05T07:02:19.322Z,7.33
2023-03-05T07:04:48.185Z,7.17
2023-03-05T07:07:16.285Z,9.33
2023-03-05T07:09:46.017Z,10.30
2023-03-05T07:12:14.054Z,10.27
2023-03-05T07:14:43.545Z,11.67
2023-03-05T07:17:11.593Z,13.47
2023-03-05T07:19:39.981Z,12.20
2023-03-05T07:22:08.579Z,10.50
2023-03-05T07:24:37.180Z,10.33
2023-03-05T07:27:05.418Z,10.23
2023-03-05T07:29:33.553Z,9.53
2023-03-05T07:32:03.208Z,10.80
2023-03-05T07:34:31.530Z,14.30
2023-03-05T07:36:59.702Z,9.40
2023-03-05T07:39:27.770Z,13.77
2023-03-05T07:41:56.383Z,9.67
2023-03-05T07:44:24.535Z,7.13
2023-03-05T07:46:52.639Z,10.43
2023-03-05T07:49:23.996Z,7.33
2023-03-05T07:51:52.463Z,10.90
2023-03-05T07:54:20.563Z,8.90
2023-03-05T07:56:49.073Z,7.77
2023-03-05T07:59:17.289Z,11.67
2023-03-05T08:01:46.392Z,8.23
2023-03-05T08:04:14.549Z,7.67
2023-03-05T08:06:44.218Z,10.37
2023-03-05T08:09:12.358Z,7.53
2023-03-05T08:11:40.981Z,8.37
2023-03-05T08:14:09.253Z,10.43
2023-03-05T08:16:37.358Z,11.17
2023-03-05T08:19:05.529Z,8.97
2023-03-05T08:21:35.682Z,8.73
2023-03-05T08:24:07.218Z,12.23
2023-03-05T08:26:37.965Z,12.80
2023-03-05T08:29:06.420Z,8.83
2023-03-05T08:31:34.701Z,8.07
2023-03-05T08:34:04.123Z,7.60
2023-03-05T08:36:32.584Z,11.47
2023-03-05T08:39:00.960Z,9.30
2023-03-05T08:41:30.778Z,8.67
2023-03-05T08:43:58.854Z,9.43
2023-03-05T08:46:27.265Z,12.17
2023-03-05T08:48:55.489Z,7.50
2023-03-05T08:51:26.058Z,13.50
2023-03-05T08:53:54.826Z,10.27
2023-03-05T08:56:23.223Z,8.93
2023-03-05T08:58:53.089Z,8.43
2023-03-05T09:01:22.715Z,9.83
2023-03-05T09:03:50.884Z,8.50
2023-03-05T09:06:19.102Z,9.67
2023-03-05T09:08:47.298Z,8.20
2023-03-05T09:11:15.987Z,8.70
2023-03-05T09:13:44.113Z,12.77
2023-03-05T09:16:16.629Z,15.50
2023-03-05T09:18:44.742Z,12.07
2023-03-05T09:21:14.504Z,10.40
2023-03-05T09:23:43.225Z,9.57
2023-03-05T09:26:13.476Z,11.97
2023-03-05T09:28:42.113Z,11.43
2023-03-05T09:31:10.757Z,10.63
2023-03-05T09:33:40.753Z,11.10
2023-03-05T09:36:19.426Z,9.20
2023-03-05T09:38:47.612Z,11.33
2023-03-05T09:41:23.099Z,9.07
2023-03-05T09:43:59.990Z,10.10
2023-03-05T09:46:39.127Z,6.90
2023-03-05T09:49:19.133Z,9.07
2023-03-05T09:51:50.808Z,7.87
2023-03-05T09:54:21.967Z,10.93
2023-03-05T09:56:56.592Z,6.93
2023-03-05T09:59:31.523Z,7.10
2023-03-05T10:02:04.304Z,8.80
2023-03-05T10:04:45.857Z,7.60
2023-03-05T10:07:18.120Z,8.27
2023-03-05T10:09:49.915Z,11.87
2023-03-05T10:12:27.985Z,8.83
2023-03-05T10:14:57.232Z,7.13
2023-03-05T10:17:49.113Z,4.40
2023-03-05T10:20:45.750Z,5.43
2023-03-05T10:23:31.716Z,7.33
2023-03-05T10:26:15.040Z,9.17
2023-03-05T10:28:49.477Z,6.43
2023-03-05T10:31:31.763Z,5.63
2023-03-05T10:34:23.068Z,7.73
2023-03-05T10:37:09.149Z,7.93
2023-03-05T10:39:52.848Z,8.70
2023-03-05T10:42:31.345Z,8.67
2023-03-05T10:45:00.847Z,8.43
2023-03-05T10:47:34.051Z,9.03
2023-03-05T10:50:02.088Z,11.33
2023-03-05T10:52:37.906Z,8.03
2023-03-05T10:55:16.621Z,9.33
2023-03-05T10:57:44.912Z,5.10
2023-03-05T11:00:20.906Z,8.40
2023-03-05T11:03:00.689Z,6.97
2023-03-05T11:05:42.292Z,7.33
2023-03-05T11:08:28.576Z,6.93
2023-03-05T11:11:12.547Z,5.17
2023-03-05T11:13:56.330Z,9.43
2023-03-05T11:16:26.811Z,8.60
2023-03-05T11:19:18.632Z,6.23
2023-03-05T11:21:48.356Z,9.73
2023-03-05T11:24:19.997Z,6.10
2023-03-05T11:26:50.443Z,6.53
2023-03-05T11:29:22.194Z,5.90
2023-03-05T11:31:51.041Z,5.17
2023-03-05T11:34:35.458Z,4.33
2023-03-05T11:37:06.592Z,8.87
2023-03-05T11:39:39.078Z,7.03
2023-03-05T11:42:12.053Z,8.67
2023-03-05T11:44:47.990Z,9.83
2023-03-05T11:47:25.804Z,10.00
2023-03-05T11:49:57.290Z,9.03
2023-03-05T11:52:31.152Z,8.63
2023-03-05T11:55:06.483Z,10.03
2023-03-05T11:57:42.748Z,7.57
2023-03-05T12:00:17.347Z,9.00
2023-03-05T12:02:49.064Z,8.47
2023-03-05T12:05:17.800Z,6.70
2023-03-05T12:07:50.523Z,6.13
2023-03-05T12:10:21.951Z,8.90
2023-03-05T12:12:57.855Z,11.37
2023-03-05T12:15:50.102Z,7.60
2023-03-05T12:18:35.661Z,8.07
2023-03-05T12:21:09.129Z,6.87
2023-03-05T12:23:48.198Z,7.60
2023-03-05T12:26:18.109Z,8.50
2023-03-05T12:28:58.978Z,5.33
2023-03-05T12:31:35.300Z,8.03
2023-03-05T12:34:49.525Z,10.70
2023-03-05T12:37:50.735Z,9.60
2023-03-05T12:40:23.545Z,8.43
2023-03-05T12:42:57.682Z,7.27
2023-03-05T12:45:31.899Z,6.37
2023-03-05T12:48:37.161Z,7.03
2023-03-05T12:51:05.500Z,6.10
2023-03-05T12:53:33.520Z,12.43
2023-03-05T12:56:12.623Z,4.83
2023-03-05T12:58:45.157Z,6.47
2023-03-05T13:01:24.740Z,5.47
2023-03-05T13:03:57.261Z,7.37
2023-03-05T13:06:28.380Z,7.67
2023-03-05T13:09:01.683Z,7.97
2023-03-05T13:11:32.296Z,6.30
2023-03-05T13:14:02.714Z,5.33
2023-03-05T13:16:37.569Z,6.43
2023-03-05T13:19:16.211Z,8.00
2023-03-05T13:21:44.965Z,5.00
2023-03-05T13:24:18.956Z,4.53
2023-03-05T13:26:47.731Z,7.43
2023-03-05T13:29:19.023Z,6.50
2023-03-05T13:31:49.265Z,5.63
2023-03-05T13:34:20.436Z,7.30
2023-03-05T13:36:53.486Z,6.00
2023-03-05T13:39:24.093Z,7.50
2023-03-05T13:42:04.532Z,5.00
2023-03-05T13:44:35.671Z,5.97
2023-03-05T13:47:17.929Z,7.33
2023-03-05T13:49:47.358Z,8.07
2023-03-05T13:52:25.454Z,5.27
2023-03-05T13:54:53.753Z,6.60
2023-03-05T13:57:37.720Z,6.37
2023-03-05T14:00:24.593Z,5.70
2023-03-05T14:02:52.965Z,8.03
2023-03-05T14:05:21.368Z,5.13
2023-03-05T14:07:51.620Z,5.70
2023-03-05T14:10:32.352Z,5.37
2023-03-05T14:13:03.282Z,5.93
2023-03-05T14:15:34.526Z,5.57
2023-03-05T14:18:20.175Z,5.70
2023-03-05T14:21:04.328Z,4.47
2023-03-05T14:23:37.725Z,6.73
2023-03-05T14:26:32.551Z,5.83
2023-03-05T14:29:02.419Z,6.03
2023-03-05T14:31:34.310Z,9.50
2023-03-05T14:34:04.025Z,3.77
2023-03-05T14:36:33.733Z,4.60
2023-03-05T14:39:02.176Z,8.13
2023-03-05T14:41:38.516Z,8.63
2023-03-05T14:44:13.714Z,9.27
2023-03-05T14:46:44.426Z,9.07
2023-03-05T14:49:12.525Z,9.47
2023-03-05T14:51:43.513Z,7.67
2023-03-05T14:54:20.746Z,7.30
2023-03-05T14:56:49.730Z,7.00
2023-03-05T14:59:18.408Z,10.07
2023-03-05T15:01:50.142Z,10.77
2023-03-05T15:04:19.273Z,17.03
2023-03-05T15:06:50.735Z,29.87
2023-03-05T15:09:21.271Z,10.50
2023-03-05T15:11:49.826Z,6.27
2023-03-05T15:14:18.033Z,11.57
2023-03-05T15:16:48.787Z,9.43
2023-03-05T15:19:16.962Z,6.93
2023-03-05T15:21:45.084Z,5.37
2023-03-05T15:24:14.889Z,6.43
2023-03-05T15:26:42.914Z,5.03
2023-03-05T15:29:10.910Z,12.77
2023-03-05T15:31:40.629Z,10.60
2023-03-05T15:34:10.106Z,4.43
2023-03-05T15:36:38.179Z,4.67
2023-03-05T15:39:06.259Z,4.00
2023-03-05T15:41:34.355Z,4.03
2023-03-05T15:44:02.536Z,3.67
2023-03-05T15:46:30.651Z,7.13
2023-03-05T15:48:58.674Z,3.13
2023-03-05T15:51:28.013Z,5.53
2023-03-05T15:53:56.214Z,4.93
2023-03-05T15:56:24.251Z,5.57
2023-03-05T15:58:52.521Z,5.87
2023-03-05T16:01:20.959Z,4.10
2023-03-05T16:03:49.194Z,5.53
2023-03-05T16:06:20.512Z,6.33
2023-03-05T16:08:52.258Z,5.87
2023-03-05T16:11:21.032Z,7.87
2023-03-05T16:13:50.662Z,8.97
2023-03-05T16:16:19.631Z,10.07
2023-03-05T16:18:48.746Z,8.50
2023-03-05T16:21:16.885Z,10.37
2023-03-05T16:23:45.027Z,9.57
2023-03-05T16:26:14.640Z,9.13
2023-03-05T16:28:42.816Z,9.23
2023-03-05T16:31:11.090Z,7.43
2023-03-05T16:33:39.267Z,8.40
2023-03-05T16:36:21.442Z,11.97
2023-03-05T16:38:50.461Z,8.83
2023-03-05T16:41:23.283Z,7.53
2023-03-05T16:43:53.488Z,10.33
2023-03-05T16:46:21.738Z,6.30
2023-03-05T16:48:49.962Z,7.20
2023-03-05T16:51:19.881Z,8.50
2023-03-05T16:53:48.162Z,11.20
2023-03-05T16:56:16.536Z,11.87
2023-03-05T16:58:46.140Z,8.40
2023-03-05T17:01:17.366Z,9.23
2023-03-05T17:03:45.641Z,12.40
2023-03-05T17:06:15.019Z,12.63
2023-03-05T17:08:43.609Z,13.43
2023-03-05T17:11:12.628Z,13.57
2023-03-05T17:13:41.089Z,18.10
2023-03-05T17:16:11.806Z,18.60
2023-03-05T17:18:40.079Z,16.13
2023-03-05T17:21:09.249Z,15.80
2023-03-05T17:23:38.573Z,12.93
2023-03-05T17:26:07.688Z,16.90
2023-03-05T17:28:35.861Z,15.63
2023-03-05T17:31:04.173Z,14.10
2023-03-05T17:33:34.625Z,18.67
2023-03-05T17:36:03.322Z,12.90
2023-03-05T17:38:31.921Z,15.17
2023-03-05T17:41:00.376Z,14.23
2023-03-05T17:43:28.720Z,21.27
2023-03-05T17:45:59.723Z,17.93
2023-03-05T17:48:28.394Z,15.03
2023-03-05T17:50:58.060Z,17.97
2023-03-05T17:53:26.081Z,21.73
2023-03-05T17:55:54.754Z,23.80
2023-03-05T17:58:22.944Z,23.17
2023-03-05T18:00:51.292Z,19.03
2023-03-05T18:03:19.506Z,17.27
2023-03-05T18:05:47.576Z,25.40
2023-03-05T18:08:17.238Z,21.13
2023-03-05T18:10:45.349Z,23.37
2023-03-05T18:13:13.801Z,23.60
2023-03-05T18:15:47.853Z,21.30
2023-03-05T18:18:16.738Z,21.40
2023-03-05T18:20:46.241Z,18.87
2023-03-05T18:23:14.658Z,19.37
2023-03-05T18:25:44.469Z,18.90
2023-03-05T18:28:14.040Z,24.83
2023-03-05T18:30:42.960Z,24.93
2023-03-05T18:33:18.791Z,24.90
2023-03-05T18:35:46.888Z,21.70
2023-03-05T18:38:14.979Z,22.50
2023-03-05T18:40:45.961Z,22.17
2023-03-05T18:43:14.442Z,17.70
2023-03-05T18:45:42.594Z,20.47
2023-03-05T18:48:11.797Z,23.90
2023-03-05T18:50:39.909Z,19.00
2023-03-05T18:53:08.020Z,17.80
2023-03-05T18:55:36.167Z,14.53
2023-03-05T18:58:05.989Z,12.70
2023-03-05T19:00:34.289Z,13.03
2023-03-05T19:03:03.698Z,12.87
2023-03-05T19:05:32.336Z,14.73
2023-03-05T19:08:00.854Z,14.73
2023-03-05T19:10:29.412Z,21.97
2023-03-05T19:13:08.033Z,28.70
2023-03-05T19:15:40.542Z,23.77
2023-03-05T19:18:08.681Z,31.77
2023-03-05T19:20:36.809Z,18.10
2023-03-05T19:23:05.249Z,17.27
2023-03-05T19:25:34.949Z,18.57
2023-03-05T19:28:04.613Z,20.13
2023-03-05T19:30:32.814Z,14.07
2023-03-05T19:33:03.708Z,11.47
2023-03-05T19:35:31.861Z,13.60
2023-03-05T19:38:00.013Z,15.67
2023-03-05T19:40:28.805Z,7.80
2023-03-05T19:42:57.871Z,15.97
2023-03-05T19:45:25.960Z,11.20
2023-03-05T19:47:54.089Z,11.50
2023-03-05T19:50:23.866Z,17.10
2023-03-05T19:52:51.894Z,15.23
2023-03-05T19:55:20.195Z,17.23
2023-03-05T19:57:48.241Z,17.87
2023-03-05T20:00:17.148Z,19.73
2023-03-05T20:02:45.144Z,13.07
2023-03-05T20:05:13.240Z,17.70
2023-03-05T20:07:42.665Z,14.13
2023-03-05T20:10:12.021Z,17.10
2023-03-05T20:12:40.142Z,15.70
2023-03-05T20:15:09.151Z,12.67
2023-03-05T20:17:37.271Z,11.43
2023-03-05T20:20:06.266Z,18.53
2023-03-05T20:22:34.292Z,12.73
2023-03-05T20:25:04.069Z,21.30
2023-03-05T20:27:32.177Z,12.97
2023-03-05T20:30:00.466Z,16.10
2023-03-05T20:32:28.783Z,14.00
2023-03-05T20:34:57.238Z,18.40
2023-03-05T20:37:30.240Z,18.93
2023-03-05T20:39:58.349Z,15.73
2023-03-05T20:42:28.613Z,13.83
2023-03-05T20:44:56.734Z,14.77
2023-03-05T20:47:32.781Z,13.87
2023-03-05T20:50:00.895Z,12.60
2023-03-05T20:52:28.986Z,15.47
2023-03-05T20:54:57.257Z,13.23
2023-03-05T20:57:25.385Z,12.40
2023-03-05T20:59:54.784Z,17.50
2023-03-05T21:02:23.238Z,13.30
2023-03-05T21:04:51.427Z,14.57
2023-03-05T21:07:19.693Z,14.97
2023-03-05T21:09:47.921Z,13.70
2023-03-05T21:12:16.340Z,15.10
2023-03-05T21:14:44.478Z,14.83
2023-03-05T21:17:13.997Z,14.20
2023-03-05T21:19:42.218Z,14.63
2023-03-05T21:22:10.324Z,17.90
2023-03-05T21:24:52.344Z,14.23
2023-03-05T21:27:20.500Z,12.37
2023-03-05T21:29:48.692Z,16.50
2023-03-05T21:32:18.296Z,16.47
2023-03-05T21:34:46.457Z,10.37
2023-03-05T21:37:14.443Z,10.80
2023-03-05T21:39:42.457Z,11.30
2023-03-05T21:42:11.263Z,11.93
2023-03-05T21:44:39.340Z,11.97
2023-03-05T21:47:07.372Z,9.43
2023-03-05T21:49:38.031Z,12.97
2023-03-05T21:52:09.311Z,9.87
2023-03-05T21:54:37.594Z,11.73
2023-03-05T21:57:06.763Z,13.30
2023-03-05T21:59:34.797Z,12.83
2023-03-05T22:02:03.430Z,17.73
2023-03-05T22:04:31.409Z,13.43
2023-03-05T22:07:00.864Z,13.20
2023-03-05T22:09:28.965Z,13.53
2023-03-05T22:11:57.038Z,14.70
2023-03-05T22:14:25.243Z,14.53
2023-03-05T22:16:55.219Z,18.77
2023-03-05T22:19:23.653Z,17.83
2023-03-05T22:21:51.634Z,15.77
2023-03-05T22:24:21.936Z,19.97
2023-03-05T22:26:49.958Z,18.07
2023-03-05T22:29:18.286Z,15.47
2023-03-05T22:31:46.375Z,24.47
2023-03-05T22:34:14.460Z,21.37
2023-03-05T22:36:42.680Z,19.13
2023-03-05T22:39:10.691Z,15.50
2023-03-05T22:41:42.306Z,21.17
2023-03-05T22:44:10.356Z,23.30
2023-03-05T22:46:38.459Z,13.37
2023-03-05T22:49:06.519Z,26.93
2023-03-05T22:51:34.527Z,45.63
2023-03-05T22:54:02.670Z,46.43
2023-03-05T22:56:30.888Z,43.97
2023-03-05T22:59:00.323Z,44.63
2023-03-05T23:01:28.818Z,44.27
2023-03-05T23:04:03.372Z,51.03
2023-03-05T23:06:31.724Z,65.90
2023-03-05T23:09:00.211Z,65.03
2023-03-05T23:11:28.211Z,78.23
2023-03-05T23:13:57.119Z,85.00
2023-03-05T23:16:26.590Z,93.57
2023-03-05T23:18:54.890Z,81.27
2023-03-05T23:21:23.075Z,70.17
2023-03-05T23:23:53.105Z,89.03
2023-03-05T23:26:21.181Z,88.83
2023-03-05T23:28:49.327Z,103.77
2023-03-05T23:31:18.831Z,91.00
2023-03-05T23:33:48.467Z,84.10
2023-03-05T23:36:19.887Z,89.97
2023-03-05T23:38:47.857Z,101.67
2023-03-05T23:41:16.006Z,94.27
2023-03-05T23:43:44.169Z,100.47
2023-03-05T23:46:13.011Z,107.17
2023-03-05T23:48:41.472Z,117.53
2023-03-05T23:51:11.891Z,122.90
2023-03-05T23:53:39.986Z,120.03
2023-03-05T23:56:11.897Z,128.77
2023-03-05T23:58:40.654Z,239.93
